Time;durP1;ratioP1;P1;durP2;ratioP2;P2;SDS_P1;SDS_P2;PMS_P1;PMS_P2;Temp;Humidity;BMP_temperature;BMP_pressure;BME280_temperature;BME280_humidity;BME280_pressure;Samples;Min_cycle;Max_cycle;Signal;HPM_P1;HPM_P2
2022/10/15 06:47:23;;;;;;;119.13;49.58;;;12.30;99.90;;;;;;5188920;27;126313;-47
2022/10/15 06:49:48;;;;;;;112.85;50.45;;;12.10;99.90;;;;;;5192345;27;20358;-46
2022/10/15 06:52:14;;;;;;;126.43;56.25;;;12.30;99.90;;;;;;5173623;27;20121;-46
2022/10/15 06:54:40;;;;;;;119.47;56.08;;;11.80;99.90;;;;;;5192087;27;20358;-47
2022/10/15 06:57:05;;;;;;;115.75;56.28;;;12.30;99.90;;;;;;5173589;27;20034;-47
2022/10/15 06:59:31;;;;;;;115.13;55.08;;;12.40;99.90;;;;;;5191985;27;20046;-46
2022/10/15 07:10:50;;;;;;;112.45;50.75;;;12.30;99.90;;;;;;5144679;27;20540;-45
2022/10/15 07:13:16;;;;;;;107.07;51.15;;;12.10;99.90;;;;;;5129700;27;20035;-48
2022/10/15 07:15:43;;;;;;;110.05;50.58;;;12.30;99.90;;;;;;5129538;27;20387;-46
2022/10/15 07:18:09;;;;;;;107.03;51.97;;;11.90;99.90;;;;;;5129710;27;20043;-46
2022/10/15 07:20:34;;;;;;;111.95;52.95;;;11.90;99.90;;;;;;5129541;27;20043;-47
2022/10/15 07:23:02;;;;;;;107.03;51.25;;;12.40;99.90;;;;;;5129777;27;20106;-48
2022/10/15 07:25:28;;;;;;;113.43;50.75;;;12.40;99.90;;;;;;5129735;27;20050;-46
2022/10/15 07:27:55;;;;;;;104.20;50.05;;;11.90;99.90;;;;;;5129677;27;20073;-46
2022/10/15 07:30:22;;;;;;;97.65;49.33;;;11.90;99.90;;;;;;5129432;27;20100;-48
2022/10/15 07:32:48;;;;;;;96.65;48.75;;;12.10;99.90;;;;;;5129311;27;20093;-47
2022/10/15 07:35:13;;;;;;;93.68;47.72;;;12.30;99.90;;;;;;5129179;27;20075;-47
2022/10/15 07:37:39;;;;;;;102.40;49.90;;;12.50;99.90;;;;;;5129132;27;20079;-46
2022/10/15 07:40:06;;;;;;;101.22;49.13;;;12.50;99.90;;;;;;5116327;27;20044;-47
2022/10/15 07:42:31;;;;;;;102.22;48.90;;;12.40;99.90;;;;;;5108942;28;20370;-47
2022/10/15 07:44:58;;;;;;;106.13;49.88;;;12.50;99.90;;;;;;5108759;28;20036;-49
2022/10/15 07:47:23;;;;;;;99.18;47.97;;;11.90;99.90;;;;;;5108530;28;20737;-46
2022/10/15 07:49:49;;;;;;;97.32;48.28;;;12.50;99.90;;;;;;5095140;28;20042;-48
2022/10/15 07:52:15;;;;;;;93.70;48.00;;;12.00;99.90;;;;;;5102501;28;20040;-48
2022/10/15 07:54:41;;;;;;;100.35;50.58;;;12.40;99.90;;;;;;5108637;28;20056;-50
2022/10/15 07:57:06;;;;;;;106.00;49.42;;;12.00;99.90;;;;;;5107918;28;20465;-48
2022/10/15 07:59:33;;;;;;;103.80;50.22;;;12.20;99.90;;;;;;5108055;28;20047;-51
2022/10/15 08:01:59;;;;;;;103.63;48.55;;;12.60;99.90;;;;;;5106479;28;20077;-48
2022/10/15 08:04:24;;;;;;;103.20;48.90;;;12.20;99.90;;;;;;5107819;28;20082;-47
2022/10/15 08:06:50;;;;;;;101.13;50.15;;;12.10;99.90;;;;;;5108148;28;20044;-49
2022/10/15 08:09:16;;;;;;;96.32;47.55;;;12.70;99.90;;;;;;5107644;28;20055;-49
2022/10/15 08:11:41;;;;;;;106.03;48.05;;;12.80;99.90;;;;;;5107197;28;20058;-47
2022/10/15 08:14:07;;;;;;;93.78;47.83;;;12.90;99.90;;;;;;5108323;28;20104;-47
2022/10/15 08:16:33;;;;;;;102.43;50.17;;;12.80;99.90;;;;;;5108384;28;20101;-47
2022/10/15 08:18:59;;;;;;;105.88;49.50;;;13.00;99.90;;;;;;5108043;28;20032;-49
2022/10/15 08:21:25;;;;;;;105.68;51.05;;;12.90;99.90;;;;;;5098878;28;20123;-47
2022/10/15 08:23:51;;;;;;;104.60;50.30;;;12.90;99.90;;;;;;5093249;28;20237;-48
2022/10/15 08:26:17;;;;;;;109.68;51.88;;;13.10;99.90;;;;;;5094300;28;20428;-49
2022/10/15 08:28:43;;;;;;;105.47;51.95;;;13.00;99.90;;;;;;5094072;28;20075;-47
2022/10/15 08:31:08;;;;;;;105.53;50.40;;;13.00;99.90;;;;;;5092909;28;20068;-49
2022/10/15 08:33:35;;;;;;;103.93;50.42;;;12.70;99.90;;;;;;5094170;28;20120;-48
2022/10/15 08:36:04;;;;;;;106.97;51.03;;;12.50;99.90;;;;;;5094167;28;20040;-50
2022/10/15 08:38:30;;;;;;;100.55;50.50;;;13.10;99.90;;;;;;5093959;28;20093;-48
2022/10/15 08:40:58;;;;;;;105.20;48.85;;;12.50;99.90;;;;;;5074395;28;20032;-48
2022/10/15 08:43:41;;;;;;;102.13;50.65;;;12.70;99.90;;;;;;5073843;28;20036;-50
2022/10/15 08:46:19;;;;;;;104.50;50.28;;;13.10;99.90;;;;;;5074051;28;20051;-48
2022/10/15 08:48:48;;;;;;;96.13;47.88;;;12.80;99.90;;;;;;5073674;28;20419;-50
2022/10/15 08:51:23;;;;;;;98.95;48.72;;;12.60;99.90;;;;;;5073749;28;20215;-48
2022/10/15 08:53:58;;;;;;;98.05;49.65;;;13.10;99.90;;;;;;5072364;28;20048;-47
2022/10/15 08:56:29;;;;;;;94.72;46.63;;;13.10;99.90;;;;;;5073658;28;20469;-48
2022/10/15 08:59:32;;;;;;;90.53;45.83;;;13.40;99.90;;;;;;5077249;28;20052;-50
2022/10/15 09:02:22;;;;;;;94.35;46.42;;;13.20;99.90;;;;;;5093755;28;20036;-48
2022/10/15 09:04:56;;;;;;;93.60;45.63;;;12.70;99.90;;;;;;5088831;28;20465;-51
2022/10/15 09:07:54;;;;;;;90.85;46.78;;;13.20;99.90;;;;;;5082436;28;20037;-48
2022/10/15 09:10:38;;;;;;;86.40;45.35;;;12.70;99.90;;;;;;5075785;28;20077;-47
2022/10/15 09:13:12;;;;;;;85.35;43.78;;;12.80;99.90;;;;;;5082520;28;20089;-48
2022/10/15 09:15:48;;;;;;;83.93;43.50;;;12.80;99.90;;;;;;5082616;28;20048;-47
2022/10/15 09:18:23;;;;;;;89.05;45.53;;;13.50;99.90;;;;;;5083296;28;20040;-48
2022/10/15 09:20:49;;;;;;;88.32;44.45;;;12.90;99.90;;;;;;5091328;28;20488;-46
2022/10/15 09:23:21;;;;;;;88.65;44.78;;;13.00;99.90;;;;;;5081947;28;20085;-47
2022/10/15 09:26:12;;;;;;;81.95;42.83;;;13.20;99.90;;;;;;5083576;28;20101;-46
2022/10/15 09:28:46;;;;;;;78.72;42.92;;;13.50;99.90;;;;;;5075364;28;20040;-47
2022/10/15 09:31:16;;;;;;;83.00;43.47;;;13.60;99.90;;;;;;5072330;28;20033;-46
2022/10/15 09:33:54;;;;;;;74.95;38.92;;;13.50;99.90;;;;;;5071366;28;20040;-46
2022/10/15 09:36:32;;;;;;;70.65;39.38;;;13.60;99.90;;;;;;5071839;28;20043;-47
2022/10/15 09:39:17;;;;;;;78.00;39.92;;;13.50;99.90;;;;;;5075386;28;20035;-47
2022/10/15 09:42:00;;;;;;;71.97;39.47;;;13.00;99.90;;;;;;5092492;28;20087;-47
2022/10/15 09:44:32;;;;;;;77.15;41.03;;;13.10;99.90;;;;;;5092720;28;20040;-50
2022/10/15 09:46:57;;;;;;;70.32;37.75;;;13.30;99.90;;;;;;5092803;28;20396;-49
2022/10/15 09:49:25;;;;;;;71.35;39.20;;;12.80;99.90;;;;;;5092880;28;20055;-47
2022/10/15 09:52:00;;;;;;;69.88;37.65;;;13.10;99.90;;;;;;5092985;28;20123;-46
2022/10/15 09:54:34;;;;;;;72.30;37.55;;;13.10;99.90;;;;;;5091569;28;20036;-48
2022/10/15 09:57:00;;;;;;;60.58;33.03;;;13.30;99.90;;;;;;5093171;28;20614;-47
2022/10/15 09:59:26;;;;;;;57.13;33.05;;;13.20;99.90;;;;;;5093002;28;20115;-47
2022/10/15 10:02:01;;;;;;;56.20;31.13;;;13.30;99.90;;;;;;5093346;28;20083;-46
2022/10/15 10:04:29;;;;;;;56.58;31.05;;;13.30;99.90;;;;;;5092174;28;20043;-47
2022/10/15 10:06:59;;;;;;;59.30;31.83;;;13.00;99.90;;;;;;5091438;28;20125;-46
2022/10/15 10:09:30;;;;;;;60.50;34.10;;;13.20;99.90;;;;;;5092642;28;20048;-47
2022/10/15 10:12:16;;;;;;;60.70;34.22;;;13.20;99.90;;;;;;5093210;28;20051;-46
2022/10/15 10:15:14;;;;;;;62.15;32.03;;;12.80;99.90;;;;;;5092709;28;20043;-46
2022/10/15 10:17:52;;;;;;;58.83;31.67;;;12.80;99.90;;;;;;5083240;28;20055;-47
2022/10/15 10:20:20;;;;;;;55.85;29.55;;;13.10;99.90;;;;;;5092988;28;20052;-47
2022/10/15 10:22:59;;;;;;;52.13;28.45;;;12.80;99.90;;;;;;5093019;28;20388;-47
2022/10/15 10:25:25;;;;;;;51.70;28.35;;;13.30;99.90;;;;;;5092514;28;20043;-48
2022/10/15 10:28:11;;;;;;;50.92;27.90;;;13.40;99.90;;;;;;5092348;28;20048;-46
2022/10/15 10:30:52;;;;;;;50.17;27.50;;;13.10;99.90;;;;;;5091519;28;20445;-48
2022/10/15 10:33:27;;;;;;;57.00;29.27;;;13.50;99.90;;;;;;5091941;28;20040;-48
2022/10/15 10:35:53;;;;;;;57.25;30.23;;;13.40;99.90;;;;;;5092402;28;20032;-47
2022/10/15 10:38:21;;;;;;;55.38;28.45;;;13.30;99.90;;;;;;5092128;28;20040;-48
2022/10/15 10:40:51;;;;;;;56.35;30.50;;;13.80;99.90;;;;;;5073998;28;20043;-46
2022/10/15 10:43:17;;;;;;;51.40;28.58;;;13.60;99.90;;;;;;5072219;28;20063;-48
2022/10/15 10:45:55;;;;;;;54.13;29.52;;;13.90;99.90;;;;;;5072162;28;20489;-47
2022/10/15 10:48:26;;;;;;;51.40;28.10;;;13.90;99.90;;;;;;5071784;28;20046;-47
2022/10/15 10:51:03;;;;;;;47.92;27.35;;;13.90;99.90;;;;;;5071946;28;20431;-47
2022/10/15 10:53:29;;;;;;;49.20;27.92;;;14.10;99.90;;;;;;5071879;28;20120;-46
2022/10/15 10:55:57;;;;;;;55.65;28.88;;;14.10;99.90;;;;;;5072075;28;20074;-47
2022/10/15 10:58:26;;;;;;;48.72;26.90;;;14.20;99.90;;;;;;5071879;28;20063;-47
2022/10/15 11:00:53;;;;;;;45.17;26.15;;;14.20;99.90;;;;;;5070038;28;20045;-48
2022/10/15 11:03:33;;;;;;;39.63;23.83;;;13.80;99.90;;;;;;5071727;28;20037;-48
2022/10/15 11:06:17;;;;;;;40.10;23.30;;;13.80;99.90;;;;;;5071517;28;20119;-49
2022/10/15 11:09:08;;;;;;;39.92;23.02;;;14.20;99.90;;;;;;5070285;28;20087;-47
2022/10/15 11:11:45;;;;;;;37.17;20.83;;;13.80;99.90;;;;;;5071373;28;20413;-48
2022/10/15 11:14:21;;;;;;;34.08;20.48;;;13.90;99.90;;;;;;5071581;28;20044;-47
2022/10/15 11:17:14;;;;;;;33.58;19.48;;;13.80;99.90;;;;;;5071855;28;20040;-47
2022/10/15 11:19:54;;;;;;;36.30;20.50;;;13.90;99.90;;;;;;5071793;28;20397;-48
2022/10/15 11:22:49;;;;;;;32.80;19.90;;;13.80;99.90;;;;;;5071915;28;20466;-48
2022/10/15 11:25:35;;;;;;;34.78;20.55;;;14.20;99.90;;;;;;5071691;28;20040;-48
2022/10/15 11:28:28;;;;;;;33.42;19.83;;;14.30;99.90;;;;;;5071440;28;20080;-51
2022/10/15 11:31:06;;;;;;;30.10;19.15;;;14.00;99.90;;;;;;5071872;28;20086;-50
2022/10/15 11:33:47;;;;;;;29.20;18.10;;;14.00;99.90;;;;;;5071455;28;20049;-47
2022/10/15 11:36:40;;;;;;;30.05;18.10;;;14.40;99.90;;;;;;5071547;28;20036;-47
2022/10/15 11:39:39;;;;;;;28.52;15.98;;;14.10;99.90;;;;;;5075715;28;20040;-48
2022/10/15 11:42:23;;;;;;;26.20;16.10;;;14.10;99.90;;;;;;5091642;28;20500;-46
2022/10/15 11:45:25;;;;;;;27.27;16.67;;;14.10;99.90;;;;;;5091494;28;20109;-47
2022/10/15 11:47:59;;;;;;;26.55;16.42;;;14.40;99.90;;;;;;5090467;28;20040;-46
2022/10/15 11:50:38;;;;;;;25.15;15.73;;;14.40;99.90;;;;;;5091697;28;20040;-47
2022/10/15 11:53:21;;;;;;;25.45;15.35;;;14.30;99.90;;;;;;5090628;28;20044;-48
2022/10/15 11:56:01;;;;;;;25.35;15.88;;;14.80;99.90;;;;;;5092101;28;20031;-47
2022/10/15 11:58:36;;;;;;;24.02;15.63;;;14.50;99.90;;;;;;5095446;28;20032;-48
2022/10/15 12:01:13;;;;;;;23.35;15.15;;;14.90;99.90;;;;;;5095331;28;20104;-47
2022/10/15 12:04:05;;;;;;;24.20;14.68;;;14.60;99.90;;;;;;5095476;28;20138;-48
2022/10/15 12:06:35;;;;;;;25.90;14.48;;;15.00;99.90;;;;;;5095247;28;20035;-48
2022/10/15 12:09:03;;;;;;;25.70;15.27;;;14.90;99.90;;;;;;5094896;28;20374;-46
2022/10/15 12:11:49;;;;;;;28.35;15.00;;;15.20;99.90;;;;;;5095067;28;20044;-47
2022/10/15 12:14:47;;;;;;;24.98;15.82;;;14.90;99.90;;;;;;5094719;28;20043;-47
2022/10/15 12:17:33;;;;;;;23.42;15.30;;;15.10;99.90;;;;;;5085765;28;20044;-47
2022/10/15 12:20:13;;;;;;;24.92;17.02;;;15.20;99.90;;;;;;5095424;28;20126;-47
2022/10/15 12:22:51;;;;;;;29.77;17.45;;;14.90;99.90;;;;;;5093903;28;20044;-47
2022/10/15 12:25:41;;;;;;;26.38;16.58;;;14.80;99.90;;;;;;5093932;28;20044;-45
2022/10/15 12:28:07;;;;;;;26.20;16.95;;;14.80;99.90;;;;;;5075734;28;20049;-47
2022/10/15 12:30:36;;;;;;;25.70;16.45;;;14.90;99.90;;;;;;5078390;28;20036;-51
2022/10/15 12:33:19;;;;;;;24.67;15.95;;;14.50;99.90;;;;;;5078007;28;20051;-46
2022/10/15 12:35:53;;;;;;;26.50;17.58;;;14.60;99.90;;;;;;5075805;28;20044;-46
2022/10/15 12:38:25;;;;;;;26.20;16.30;;;14.80;99.90;;;;;;5083385;28;20519;-47
2022/10/15 12:41:01;;;;;;;27.13;17.35;;;14.90;99.90;;;;;;5082298;28;20477;-46
2022/10/15 12:43:28;;;;;;;24.35;16.33;;;14.80;99.90;;;;;;5083305;28;20115;-47
2022/10/15 12:46:00;;;;;;;25.38;16.75;;;14.70;99.90;;;;;;5085755;28;20377;-45
2022/10/15 12:48:35;;;;;;;24.65;16.30;;;14.60;99.90;;;;;;5094903;28;20047;-47
2022/10/15 12:51:20;;;;;;;24.02;16.73;;;14.90;99.90;;;;;;5094671;28;20119;-46
2022/10/15 12:53:47;;;;;;;24.23;16.42;;;14.80;99.90;;;;;;5094168;28;20040;-46
2022/10/15 12:56:22;;;;;;;25.88;15.93;;;14.60;99.90;;;;;;5093102;28;20036;-47
2022/10/15 12:58:50;;;;;;;25.13;18.10;;;14.70;99.90;;;;;;5094617;28;20035;-48
2022/10/15 13:01:19;;;;;;;21.98;15.32;;;14.70;99.90;;;;;;5094166;28;20076;-48
2022/10/15 13:03:48;;;;;;;24.45;15.90;;;14.90;99.90;;;;;;5094279;28;20054;-48
2022/10/15 13:06:19;;;;;;;23.48;16.08;;;14.80;99.90;;;;;;5093011;28;20040;-46
2022/10/15 13:08:49;;;;;;;26.83;17.25;;;14.50;99.90;;;;;;5094019;28;20040;-47
2022/10/15 13:11:43;;;;;;;23.33;15.90;;;14.70;99.90;;;;;;5093886;28;20450;-49
2022/10/15 13:14:27;;;;;;;24.55;16.52;;;14.80;99.90;;;;;;5093871;28;20032;-47
2022/10/15 13:16:53;;;;;;;25.77;16.48;;;14.80;99.90;;;;;;5093930;28;20043;-47
2022/10/15 13:19:26;;;;;;;23.95;16.25;;;14.40;99.90;;;;;;5093939;28;20162;-46
2022/10/15 13:21:53;;;;;;;25.60;15.75;;;14.70;99.90;;;;;;5094149;28;20381;-47
2022/10/15 13:24:22;;;;;;;24.35;16.58;;;14.60;99.90;;;;;;5094194;28;20036;-48
2022/10/15 13:26:48;;;;;;;24.17;16.45;;;14.40;99.90;;;;;;5093774;28;20055;-47
2022/10/15 13:29:16;;;;;;;25.90;16.63;;;14.70;99.90;;;;;;5093531;28;20487;-48
2022/10/15 13:31:43;;;;;;;26.10;17.65;;;14.60;99.90;;;;;;5093545;28;20048;-50
2022/10/15 13:34:22;;;;;;;23.45;16.38;;;14.30;99.90;;;;;;5093838;28;20115;-47
2022/10/15 13:36:48;;;;;;;27.13;17.55;;;14.60;99.90;;;;;;5092430;28;20048;-47
2022/10/15 13:39:33;;;;;;;27.40;17.50;;;14.70;99.90;;;;;;5087825;28;20508;-46
2022/10/15 13:42:21;;;;;;;28.08;17.52;;;14.70;99.90;;;;;;5073179;28;20044;-46
2022/10/15 13:44:59;;;;;;;29.92;18.80;;;14.10;99.90;;;;;;5073143;28;20049;-47
2022/10/15 13:47:27;;;;;;;26.90;17.35;;;14.20;99.90;;;;;;5073141;28;20047;-45
2022/10/15 13:50:12;;;;;;;27.85;17.25;;;14.10;99.90;;;;;;5072696;28;20097;-47
2022/10/15 13:53:17;;;;;;;30.45;17.17;;;14.70;99.90;;;;;;5072705;28;20044;-48
2022/10/15 13:55:46;;;;;;;28.00;17.00;;;14.70;99.90;;;;;;5059453;28;20136;-48
2022/10/15 13:58:19;;;;;;;27.40;16.75;;;14.30;99.90;;;;;;5072939;28;20125;-46
2022/10/15 14:01:01;;;;;;;29.80;17.05;;;14.80;99.90;;;;;;5092142;28;20047;-46
2022/10/15 14:03:29;;;;;;;31.40;16.63;;;14.10;99.90;;;;;;5092849;28;20669;-47
2022/10/15 14:05:57;;;;;;;30.05;16.92;;;14.80;99.90;;;;;;5092944;28;20050;-47
2022/10/15 14:08:31;;;;;;;27.38;16.30;;;14.20;99.90;;;;;;5092739;28;20047;-48
2022/10/15 14:10:58;;;;;;;30.40;17.50;;;14.80;99.90;;;;;;5092818;28;20055;-46
2022/10/15 14:13:25;;;;;;;27.27;16.27;;;14.10;99.90;;;;;;5092752;28;20047;-47
2022/10/15 14:16:19;;;;;;;24.35;14.57;;;14.50;99.90;;;;;;5093097;28;20133;-47
2022/10/15 14:19:07;;;;;;;22.90;14.38;;;14.60;99.90;;;;;;5092597;28;20071;-47
2022/10/15 14:21:34;;;;;;;27.25;15.18;;;14.80;99.90;;;;;;5092539;28;20044;-46
2022/10/15 14:24:33;;;;;;;24.10;14.20;;;14.50;99.90;;;;;;5093047;28;20043;-46
2022/10/15 14:27:26;;;;;;;24.55;14.82;;;14.30;99.90;;;;;;5078505;28;20109;-45
2022/10/15 14:29:54;;;;;;;23.95;14.18;;;14.00;99.90;;;;;;5090851;28;20048;-46
2022/10/15 14:32:25;;;;;;;23.52;14.23;;;13.90;99.90;;;;;;5092684;28;20119;-47
2022/10/15 14:35:03;;;;;;;25.80;14.25;;;14.80;99.90;;;;;;5091646;28;20047;-46
2022/10/15 14:37:40;;;;;;;24.92;14.57;;;14.10;99.90;;;;;;5092738;28;20051;-46
2022/10/15 14:40:08;;;;;;;22.30;13.63;;;14.20;99.90;;;;;;5080132;28;20119;-46
2022/10/15 14:42:40;;;;;;;24.08;13.98;;;14.50;99.90;;;;;;5072280;28;20048;-47
2022/10/15 14:45:27;;;;;;;25.00;13.43;;;14.80;99.90;;;;;;5072429;28;20040;-47
2022/10/15 14:48:09;;;;;;;24.13;13.55;;;14.00;99.90;;;;;;5072410;28;20053;-47
2022/10/15 14:50:43;;;;;;;22.90;13.15;;;14.50;99.90;;;;;;5072395;28;20041;-46
2022/10/15 14:53:14;;;;;;;23.48;13.38;;;14.30;99.90;;;;;;5070942;28;20453;-50
2022/10/15 14:55:51;;;;;;;21.60;13.35;;;14.90;99.90;;;;;;5072398;28;20071;-49
2022/10/15 14:58:19;;;;;;;23.42;13.35;;;15.00;99.90;;;;;;5071954;28;20385;-47
2022/10/15 15:00:48;;;;;;;23.63;14.13;;;14.90;99.90;;;;;;5091095;28;20480;-47
2022/10/15 15:03:19;;;;;;;22.02;13.65;;;14.20;99.90;;;;;;5092189;28;20051;-47
2022/10/15 15:05:47;;;;;;;23.95;14.40;;;14.70;99.90;;;;;;5091340;28;20127;-47
2022/10/15 15:08:13;;;;;;;24.48;13.63;;;14.30;99.90;;;;;;5092056;28;20035;-48
2022/10/15 15:10:40;;;;;;;23.58;13.82;;;14.50;99.90;;;;;;5091815;28;20193;-47
2022/10/15 15:13:05;;;;;;;23.30;13.65;;;14.20;99.90;;;;;;5092349;28;20043;-47
2022/10/15 15:15:31;;;;;;;22.25;12.40;;;14.40;99.90;;;;;;5092277;28;20416;-48
2022/10/15 15:17:57;;;;;;;34.20;14.38;;;14.60;99.90;;;;;;5091550;28;20036;-46
2022/10/15 15:20:24;;;;;;;23.70;14.30;;;14.20;99.90;;;;;;5091288;28;20150;-46
2022/10/15 15:22:53;;;;;;;24.25;13.50;;;15.00;99.90;;;;;;5091915;28;20396;-46
2022/10/15 15:25:20;;;;;;;24.23;14.73;;;14.10;99.90;;;;;;5091760;28;20377;-53
2022/10/15 15:27:46;;;;;;;24.70;14.27;;;15.10;99.90;;;;;;5090142;28;20071;-47
2022/10/15 15:30:21;;;;;;;23.33;13.57;;;14.30;99.90;;;;;;5091796;28;20496;-47
2022/10/15 15:32:47;;;;;;;20.38;12.57;;;15.10;99.90;;;;;;5095249;28;20032;-46
2022/10/15 15:35:29;;;;;;;22.65;12.25;;;14.80;99.90;;;;;;5096056;28;20093;-46
2022/10/15 15:37:54;;;;;;;22.80;10.13;;;15.20;99.90;;;;;;5095926;28;20093;-48
2022/10/15 15:40:20;;;;;;;17.95;10.85;;;14.80;99.90;;;;;;5080342;28;20049;-45
2022/10/15 15:42:46;;;;;;;15.00;9.20;;;14.30;99.90;;;;;;5075350;28;20129;-46
2022/10/15 15:45:21;;;;;;;18.35;9.20;;;15.10;99.90;;;;;;5074967;28;20381;-49
2022/10/15 15:47:47;;;;;;;15.32;9.48;;;14.20;99.90;;;;;;5075459;28;20033;-46
2022/10/15 15:50:13;;;;;;;16.58;9.05;;;14.40;99.90;;;;;;5075422;28;20090;-47
2022/10/15 15:52:39;;;;;;;15.60;9.43;;;14.10;99.90;;;;;;5075552;28;20037;-47
2022/10/15 15:55:05;;;;;;;14.30;8.07;;;14.80;99.90;;;;;;5075517;28;20097;-46
2022/10/15 15:57:31;;;;;;;12.57;7.45;;;14.30;99.90;;;;;;5074149;28;20477;-48
2022/10/15 15:59:57;;;;;;;11.88;7.50;;;14.90;99.90;;;;;;5075057;28;20051;-47
2022/10/15 16:02:22;;;;;;;10.95;6.85;;;14.80;99.90;;;;;;5075136;28;20042;-47
2022/10/15 16:04:48;;;;;;;11.82;7.50;;;14.10;99.90;;;;;;5075361;28;20036;-45
2022/10/15 16:07:14;;;;;;;11.05;6.68;;;14.70;99.90;;;;;;5075394;28;20040;-47
2022/10/15 16:09:40;;;;;;;9.63;6.00;;;14.60;99.90;;;;;;5074635;28;20056;-47
2022/10/15 16:12:06;;;;;;;10.63;6.38;;;13.90;99.90;;;;;;5074792;28;20388;-46
2022/10/15 16:14:31;;;;;;;9.73;6.07;;;14.60;99.90;;;;;;5075320;28;20032;-46
2022/10/15 16:16:57;;;;;;;9.88;6.05;;;14.50;99.90;;;;;;5075124;28;20032;-46
2022/10/15 16:19:24;;;;;;;9.25;5.28;;;14.20;99.90;;;;;;5073668;28;20072;-47
2022/10/15 16:21:49;;;;;;;7.38;4.60;;;14.40;99.90;;;;;;5073642;28;20045;-47
2022/10/15 16:24:15;;;;;;;7.57;4.68;;;13.80;99.90;;;;;;5074737;28;20048;-46
2022/10/15 16:26:41;;;;;;;8.43;4.82;;;13.90;99.90;;;;;;5074807;28;20040;-46
2022/10/15 16:29:07;;;;;;;8.38;5.05;;;14.40;99.90;;;;;;5074826;28;20430;-46
2022/10/15 16:31:35;;;;;;;9.43;5.18;;;13.80;99.90;;;;;;5073519;28;20515;-46
2022/10/15 16:34:03;;;;;;;8.77;5.82;;;13.80;99.90;;;;;;5074680;28;20526;-48
2022/10/15 16:36:29;;;;;;;9.43;5.90;;;13.70;99.90;;;;;;5074579;28;20491;-48
2022/10/15 16:38:55;;;;;;;10.35;6.00;;;13.80;99.90;;;;;;5077525;28;20036;-47
2022/10/15 16:41:21;;;;;;;9.57;5.88;;;14.00;99.90;;;;;;5093190;28;20080;-51
2022/10/15 16:43:47;;;;;;;10.90;6.82;;;14.20;99.90;;;;;;5093253;28;20480;-48
2022/10/15 16:46:14;;;;;;;8.73;6.32;;;13.60;99.90;;;;;;5093468;28;20043;-47
2022/10/15 16:48:40;;;;;;;11.13;7.05;;;13.60;99.90;;;;;;5093827;28;20047;-45
2022/10/15 16:51:14;;;;;;;8.95;6.07;;;13.80;99.90;;;;;;5086914;28;20036;-46
2022/10/15 16:53:41;;;;;;;9.15;6.18;;;14.10;99.90;;;;;;5080226;28;20480;-46
2022/10/15 16:56:14;;;;;;;11.77;7.10;;;13.90;99.90;;;;;;5090010;28;20052;-47
2022/10/15 16:58:40;;;;;;;11.93;7.03;;;14.10;99.90;;;;;;5093410;28;20040;-47
2022/10/15 17:01:09;;;;;;;10.88;7.45;;;13.60;99.90;;;;;;5093740;28;20123;-48
2022/10/15 17:03:36;;;;;;;12.75;7.95;;;13.50;99.90;;;;;;5093419;28;20058;-47
2022/10/15 17:06:05;;;;;;;11.95;7.63;;;13.40;99.90;;;;;;5093877;28;20491;-47
2022/10/15 17:08:39;;;;;;;12.90;9.70;;;13.50;99.90;;;;;;5093370;28;20177;-47
2022/10/15 17:11:08;;;;;;;13.25;9.65;;;13.80;99.90;;;;;;5085264;28;20052;-49
2022/10/15 17:13:34;;;;;;;13.70;8.98;;;14.00;99.90;;;;;;5082515;28;20173;-48
2022/10/15 17:16:07;;;;;;;12.55;8.73;;;13.90;99.90;;;;;;5084320;28;20107;-48
2022/10/15 17:18:33;;;;;;;12.48;9.23;;;14.00;99.90;;;;;;5080654;28;20035;-46
2022/10/15 17:20:58;;;;;;;15.93;10.13;;;13.90;99.90;;;;;;5082298;28;20039;-48
2022/10/15 17:23:24;;;;;;;13.30;8.43;;;13.90;99.90;;;;;;5082861;28;20039;-48
2022/10/15 17:25:50;;;;;;;13.77;9.35;;;13.40;99.90;;;;;;5081374;28;20059;-47
2022/10/15 17:28:15;;;;;;;11.30;7.75;;;14.00;99.90;;;;;;5078264;28;20036;-47
2022/10/15 17:30:41;;;;;;;14.02;7.57;;;14.00;99.90;;;;;;5072768;28;20045;-46
2022/10/15 17:33:07;;;;;;;12.10;6.60;;;13.90;99.90;;;;;;5072626;28;20040;-47
2022/10/15 17:35:35;;;;;;;11.13;6.13;;;13.50;99.90;;;;;;5072709;28;20073;-46
2022/10/15 17:38:01;;;;;;;11.43;5.47;;;13.40;99.90;;;;;;5071723;28;20416;-47
2022/10/15 17:40:27;;;;;;;9.23;4.82;;;13.70;99.90;;;;;;5088232;28;20081;-49
2022/10/15 17:42:54;;;;;;;10.80;4.45;;;13.60;99.90;;;;;;5091483;28;20080;-46
2022/10/15 17:45:21;;;;;;;10.02;3.67;;;13.60;99.90;;;;;;5092993;28;20052;-47
2022/10/15 17:47:47;;;;;;;9.20;4.00;;;13.70;99.90;;;;;;5092641;28;20032;-48
2022/10/15 17:50:13;;;;;;;9.95;3.42;;;13.30;99.90;;;;;;5092723;28;20050;-46
2022/10/15 17:52:40;;;;;;;8.75;3.60;;;13.40;99.90;;;;;;5092674;28;20484;-46
2022/10/15 17:55:06;;;;;;;7.97;3.30;;;13.40;99.90;;;;;;5091820;28;20456;-46
2022/10/15 17:57:32;;;;;;;7.82;3.08;;;13.50;99.90;;;;;;5092791;28;20039;-45
2022/10/15 17:59:57;;;;;;;11.25;2.80;;;13.50;99.90;;;;;;5092374;28;20040;-47
2022/10/15 18:02:23;;;;;;;8.85;2.50;;;13.50;99.90;;;;;;5092463;28;20199;-48
2022/10/15 18:04:49;;;;;;;11.60;2.97;;;13.20;99.90;;;;;;5092378;28;20047;-46
2022/10/15 18:07:17;;;;;;;8.70;2.45;;;13.30;99.90;;;;;;5092677;28;20040;-49
2022/10/15 18:09:44;;;;;;;11.45;2.60;;;13.30;99.90;;;;;;5092085;28;20633;-46
2022/10/15 18:12:10;;;;;;;10.23;2.22;;;13.40;99.90;;;;;;5092457;28;20040;-47
2022/10/15 18:14:36;;;;;;;10.38;2.13;;;13.30;99.90;;;;;;5092432;28;20051;-48
2022/10/15 18:17:02;;;;;;;9.25;2.30;;;13.10;99.90;;;;;;5091903;28;20044;-50
2022/10/15 18:19:28;;;;;;;8.85;2.40;;;13.20;99.90;;;;;;5091806;28;20092;-54
2022/10/15 18:21:54;;;;;;;9.88;3.60;;;13.30;99.90;;;;;;5075125;28;20119;-48
2022/10/15 18:24:22;;;;;;;10.20;2.30;;;13.00;99.90;;;;;;5073987;28;20059;-49
2022/10/15 18:26:48;;;;;;;7.88;2.30;;;13.10;99.90;;;;;;5079871;28;20044;-50
2022/10/15 18:29:14;;;;;;;10.70;2.30;;;13.10;99.90;;;;;;5077781;28;20040;-50
2022/10/15 18:31:40;;;;;;;10.07;2.28;;;12.90;99.90;;;;;;5075007;28;20032;-48
2022/10/15 18:34:05;;;;;;;10.70;3.22;;;13.10;99.90;;;;;;5071590;28;20039;-47
2022/10/15 18:36:32;;;;;;;11.75;2.83;;;13.00;99.90;;;;;;5072643;28;20044;-47
2022/10/15 18:38:58;;;;;;;10.52;3.08;;;12.90;99.90;;;;;;5075013;28;20040;-47
2022/10/15 18:41:27;;;;;;;11.88;3.30;;;12.90;99.90;;;;;;5091890;28;20043;-48
2022/10/15 18:44:03;;;;;;;7.85;2.70;;;13.00;99.90;;;;;;5091705;28;20043;-49
2022/10/15 18:46:30;;;;;;;7.68;2.72;;;13.00;99.90;;;;;;5091953;28;20032;-47
2022/10/15 18:48:57;;;;;;;10.23;2.60;;;13.00;99.90;;;;;;5091728;28;20050;-47
2022/10/15 18:51:24;;;;;;;10.35;2.97;;;13.00;99.90;;;;;;5091871;28;20089;-47
2022/10/15 18:53:50;;;;;;;10.80;2.58;;;12.80;99.90;;;;;;5091704;28;20410;-48
2022/10/15 18:56:16;;;;;;;8.98;2.65;;;12.90;99.90;;;;;;5091729;28;20047;-49
2022/10/15 18:58:42;;;;;;;10.27;2.70;;;12.80;99.90;;;;;;5091513;28;20032;-46
2022/10/15 19:01:27;;;;;;;8.77;2.80;;;12.70;99.90;;;;;;5090451;28;20136;-47
2022/10/15 19:03:58;;;;;;;9.02;3.00;;;12.90;99.90;;;;;;5090288;28;20048;-48
2022/10/15 19:06:27;;;;;;;8.18;2.40;;;12.80;99.90;;;;;;5091436;28;20107;-46
2022/10/15 19:08:56;;;;;;;9.85;2.35;;;12.60;99.90;;;;;;5091213;28;20079;-48
2022/10/15 19:11:22;;;;;;;8.95;2.60;;;12.70;99.90;;;;;;5091405;28;20054;-49
2022/10/15 19:13:48;;;;;;;11.38;2.40;;;12.80;99.90;;;;;;5091307;28;20036;-47
2022/10/15 19:16:13;;;;;;;8.90;2.60;;;12.60;99.90;;;;;;5091061;28;20063;-46
2022/10/15 19:18:39;;;;;;;7.72;2.47;;;12.50;99.90;;;;;;5091221;28;20040;-45
2022/10/15 19:21:05;;;;;;;8.63;2.80;;;12.50;99.90;;;;;;5089864;28;20044;-47
2022/10/15 19:23:32;;;;;;;12.18;3.50;;;12.70;99.90;;;;;;5091256;28;20040;-46
2022/10/15 19:25:58;;;;;;;10.68;2.55;;;12.50;99.90;;;;;;5090940;28;20044;-46
2022/10/15 19:28:25;;;;;;;9.35;2.53;;;12.40;99.90;;;;;;5091308;28;20097;-47
2022/10/15 19:30:56;;;;;;;6.70;2.10;;;12.70;99.90;;;;;;5090088;28;20067;-45
2022/10/15 19:33:23;;;;;;;7.82;2.30;;;12.70;99.90;;;;;;5091315;28;20036;-47
2022/10/15 19:35:49;;;;;;;10.85;2.75;;;12.40;99.90;;;;;;5091147;28;20533;-47
2022/10/15 19:38:15;;;;;;;7.10;2.28;;;12.60;99.90;;;;;;5091443;28;20036;-47
2022/10/15 19:40:40;;;;;;;9.25;2.60;;;12.60;99.90;;;;;;5071907;28;20045;-47
2022/10/15 19:43:06;;;;;;;7.63;3.22;;;12.40;99.90;;;;;;5069690;28;20040;-46
2022/10/15 19:45:50;;;;;;;10.10;2.45;;;12.50;99.90;;;;;;5071073;28;20041;-47
2022/10/15 19:48:18;;;;;;;10.98;3.70;;;12.40;99.90;;;;;;5069729;28;20049;-50